CheckWX is a tool to help pilots better visualize weather data.  It is not intended as a substitute for an official pre-flight weather briefing.

01:04:19 UTC

KBIX TAF
Keesler AFB Airport
Biloxi, Mississippi, USA
TAF KBIX 230200Z 2302/2408 14009KT 0800 FG OVC001 QNH3000INS BECMG 2315/2316 16012KT 6000 -SHRA BKN005 QNH2996INS BECMG 2403/2404 19010G15KT 6000 -SHRA BKN002 QNH2993INS TX21/2321Z TN19/2312Z LAST NO AMDS AFT 2305 NEXT 2510

Feb-23@
02:00 UTC

Feb-23 @ 02:00 UTC

Feb-23@
15:00 UTC

Feb-23 @ 15:00 UTC

TAF KBIX 230200Z 2302/2408 14009KT 0800 FG OVC001 QNH3000INS

Expired

Wind
  • 140° at 9 KTS
Conditions
Fog
Cloud Levels
  • Overcast at 100' AGL

Feb-23@
15:00 UTC

Feb-23 @ 15:00 UTC

Feb-24@
03:00 UTC

Feb-24 @ 03:00 UTC

BECMG 2315/2316 16012KT 6000 -SHRA BKN005 QNH2996INS

Becoming

Becoming Conditions expected by Sat, Feb 23, 2019 @ 16:00 UTC

Wind
  • 160° at 12 KTS
Conditions
Light Rain
Cloud Levels
  • Broken at 500' AGL

Feb-24@
03:00 UTC

Feb-24 @ 03:00 UTC

Feb-24@
08:00 UTC

Feb-24 @ 08:00 UTC

BECMG 2403/2404 19010G15KT 6000 -SHRA BKN002 QNH2993INS TX21/2321Z TN19/2312Z LAST NO AMDS AFT 2305 NEXT 2510

Becoming

Becoming Conditions expected by Sun, Feb 24, 2019 @ 04:00 UTC

Wind
  • 190° at 10 KTS
  • {Gusting to 15 KTS
Conditions
Light Rain
Cloud Levels
  • Broken at 200' AGL